createdAt,value
2023-03-06T00:05:35.754Z,100
2023-03-06T00:11:26.720Z,100
2023-03-06T00:17:18.824Z,100
2023-03-06T00:23:11.213Z,100
2023-03-06T00:29:08.027Z,100
2023-03-06T00:34:59.568Z,100
2023-03-06T00:40:51.590Z,100
2023-03-06T00:46:45.906Z,100
2023-03-06T00:52:37.224Z,100
2023-03-06T00:58:29.063Z,100
2023-03-06T01:04:22.894Z,100
2023-03-06T01:10:18.552Z,100
2023-03-06T01:16:13.841Z,100
2023-03-06T01:22:06.787Z,100
2023-03-06T01:27:58.961Z,100
2023-03-06T01:34:02.057Z,100
2023-03-06T01:39:59.111Z,100
2023-03-06T01:45:50.994Z,100
2023-03-06T01:51:48.025Z,100
2023-03-06T01:57:45.514Z,100
2023-03-06T02:03:37.870Z,100
2023-03-06T02:09:28.772Z,100
2023-03-06T02:15:32.037Z,100
2023-03-06T02:21:24.533Z,100
2023-03-06T02:27:29.903Z,100
2023-03-06T02:33:23.698Z,100
2023-03-06T02:39:15.242Z,100
2023-03-06T02:45:05.004Z,98.9
2023-03-06T02:50:57.932Z,99.2
2023-03-06T02:56:52.797Z,99.4
2023-03-06T03:02:46.070Z,98.9
2023-03-06T03:08:38.264Z,97.5
2023-03-06T03:14:30.723Z,98.4
2023-03-06T03:20:22.177Z,99.7
2023-03-06T03:26:12.591Z,99.7
2023-03-06T03:32:03.084Z,100
2023-03-06T03:37:53.725Z,99.7
2023-03-06T03:43:44.581Z,100
2023-03-06T03:49:34.511Z,99.3
2023-03-06T03:55:25.321Z,98.9
2023-03-06T04:01:13.860Z,98.5
2023-03-06T04:07:05.587Z,97.5
2023-03-06T04:12:56.469Z,97.8
2023-03-06T04:18:46.874Z,98.5
2023-03-06T04:24:41.282Z,97.6
2023-03-06T04:30:31.051Z,97.6
2023-03-06T04:36:23.960Z,97.9
2023-03-06T04:42:14.594Z,97.2
2023-03-06T04:48:05.081Z,96.9
2023-03-06T04:53:55.949Z,95.9
2023-03-06T04:59:47.664Z,94.8
2023-03-06T05:05:39.729Z,95.7
2023-03-06T05:11:30.360Z,95.8
2023-03-06T05:24:22.772Z,96.9
2023-03-06T05:30:26.213Z,97.7
2023-03-06T05:36:19.982Z,97.8
2023-03-06T05:42:15.581Z,98.2
2023-03-06T05:48:12.862Z,98.1
2023-03-06T05:54:13.184Z,98.2
2023-03-06T06:00:05.786Z,97.8
2023-03-06T06:06:15.560Z,98
2023-03-06T06:12:11.339Z,98
2023-03-06T06:18:01.930Z,98.3
2023-03-06T06:23:55.144Z,97.3
2023-03-06T06:29:50.528Z,97.5
2023-03-06T06:35:43.204Z,97.1
2023-03-06T06:42:15.391Z,97.2
2023-03-06T06:48:28.842Z,97.9
2023-03-06T06:54:23.384Z,98.2
2023-03-06T07:00:21.553Z,98.7
2023-03-06T07:06:28.162Z,98.1
2023-03-06T07:12:21.549Z,98
2023-03-06T07:18:13.326Z,97.4
2023-03-06T07:24:11.125Z,97.4
2023-03-06T07:30:10.867Z,97.5
2023-03-06T07:36:04.579Z,96.6
2023-03-06T07:42:00.368Z,96.6
2023-03-06T07:47:53.618Z,96.9
2023-03-06T07:53:45.852Z,96
2023-03-06T07:55:12.557Z,95.7
2023-03-06T08:01:01.695Z,94.9
2023-03-06T08:07:05.403Z,95.8
2023-03-06T08:19:09.662Z,96.8
2023-03-06T08:25:02.992Z,95.3
2023-03-06T08:30:56.138Z,94.2
2023-03-06T08:37:02.738Z,94.2
2023-03-06T08:43:09.025Z,92.9
2023-03-06T08:49:18.105Z,93.6
2023-03-06T08:55:11.148Z,92.5
2023-03-06T09:01:29.899Z,92.2
2023-03-06T09:07:26.508Z,90.2
2023-03-06T09:13:30.595Z,88.9
2023-03-06T09:19:25.455Z,88.3
2023-03-06T09:25:33.159Z,87.3
2023-03-06T09:31:25.041Z,87.6
2023-03-06T09:37:28.595Z,86.6
2023-03-06T09:43:29.448Z,84.5
2023-03-06T09:49:23.678Z,84.7
2023-03-06T09:55:15.571Z,83.4
2023-03-06T10:01:10.193Z,83.3
2023-03-06T10:07:07.217Z,83.1
2023-03-06T10:12:59.395Z,81.1
2023-03-06T10:19:17.811Z,81.3
2023-03-06T10:25:09.485Z,78.3
2023-03-06T10:31:06.518Z,78.4
2023-03-06T10:37:20.489Z,77.2
2023-03-06T10:49:35.418Z,76.2
2023-03-06T11:13:36.150Z,76
2023-03-06T11:19:33.480Z,75.2
2023-03-06T11:49:34.408Z,72.3
2023-03-06T20:28:58.202Z,74.6
2023-03-06T20:36:09.799Z,74.3
2023-03-06T20:42:46.598Z,74.2
2023-03-06T21:00:30.278Z,73.2
2023-03-06T21:13:09.139Z,73.3
2023-03-06T21:19:07.961Z,74.5
2023-03-06T21:25:04.934Z,75.8
2023-03-06T21:31:00.499Z,76.6
2023-03-06T21:43:00.220Z,77.1
2023-03-06T22:01:40.702Z,78.6
2023-03-06T23:07:36.793Z,80.8
2023-03-06T23:13:28.635Z,81
2023-03-06T23:19:28.152Z,81.2
2023-03-06T23:50:07.259Z,83.2
